Terminal Aerodrome Forecast
Issued by NWS

Home | Current Version | Previous Version | Text Only | Print | Product List | Glossary On
Versions: 1 2 3 4 5 6 7 8 9 10 11 12 13 14 15
000
FTUS42 KMLB 242321
TAFSUA
TAF
KSUA 242321Z 2500/2524 04010KT P6SM VCSH SCT025 SCT040 SCT150
     FM251600 07011G18KT P6SM VCSH SCT025 BKN060
      AMD LTD TO CLD AND WIND 2501/2511=

USA.gov is the U.S. government's official web portal to all federal, state and local government web resources and services.